Terminal Aerodrome Forecast
Issued by NWS Tulsa, OK

Home | Current Version | Previous Version | Text Only | Print | Product List | Glossary On
Versions: 1 2 3 4 5 6 7 8 9 10 11 12 13 14
297
FTUS44 KTSA 260520
TAFTUL
TAF
KTUL 260520Z 2606/2706 18010KT P6SM SKC
     FM261500 19012G20KT P6SM SCT050
     FM270000 17012KT P6SM SKC=

USA.gov is the U.S. government's official web portal to all federal, state and local government web resources and services.